sensor_id;sensor_type;location;lat;lon;timestamp;P1;durP1;ratioP1;P2;durP2;ratioP2
69280;SDS011;56392;51.082;17.080;2023-01-16T00:03:25;5.80;;;1.48;;
69280;SDS011;56392;51.082;17.080;2023-01-16T00:08:48;6.47;;;1.08;;
69280;SDS011;56392;51.082;17.080;2023-01-16T00:14:13;4.80;;;0.90;;
69280;SDS011;56392;51.082;17.080;2023-01-16T00:19:36;6.25;;;1.10;;
69280;SDS011;56392;51.082;17.080;2023-01-16T00:24:59;4.90;;;1.20;;
69280;SDS011;56392;51.082;17.080;2023-01-16T00:30:23;6.47;;;1.37;;
69280;SDS011;56392;51.082;17.080;2023-01-16T00:35:46;7.35;;;1.52;;
69280;SDS011;56392;51.082;17.080;2023-01-16T00:41:10;7.75;;;2.10;;
69280;SDS011;56392;51.082;17.080;2023-01-16T00:46:34;6.30;;;1.20;;
69280;SDS011;56392;51.082;17.080;2023-01-16T00:51:57;6.17;;;1.10;;
69280;SDS011;56392;51.082;17.080;2023-01-16T00:57:21;4.85;;;1.00;;
69280;SDS011;56392;51.082;17.080;2023-01-16T01:02:47;5.30;;;1.10;;
69280;SDS011;56392;51.082;17.080;2023-01-16T01:08:11;4.67;;;1.27;;
69280;SDS011;56392;51.082;17.080;2023-01-16T01:13:34;8.77;;;2.08;;
69280;SDS011;56392;51.082;17.080;2023-01-16T01:18:59;5.85;;;1.35;;
69280;SDS011;56392;51.082;17.080;2023-01-16T01:24:22;5.07;;;1.20;;
69280;SDS011;56392;51.082;17.080;2023-01-16T01:29:45;5.43;;;1.30;;
69280;SDS011;56392;51.082;17.080;2023-01-16T01:35:09;5.63;;;1.35;;
69280;SDS011;56392;51.082;17.080;2023-01-16T01:40:33;5.60;;;1.33;;
69280;SDS011;56392;51.082;17.080;2023-01-16T01:45:57;4.70;;;1.00;;
69280;SDS011;56392;51.082;17.080;2023-01-16T01:51:23;7.88;;;1.40;;
69280;SDS011;56392;51.082;17.080;2023-01-16T01:56:50;6.32;;;1.40;;
69280;SDS011;56392;51.082;17.080;2023-01-16T02:02:16;4.43;;;1.10;;
69280;SDS011;56392;51.082;17.080;2023-01-16T02:07:44;5.95;;;1.20;;
69280;SDS011;56392;51.082;17.080;2023-01-16T02:13:07;5.82;;;1.10;;
69280;SDS011;56392;51.082;17.080;2023-01-16T02:18:30;5.43;;;1.20;;
69280;SDS011;56392;51.082;17.080;2023-01-16T02:30:23;4.72;;;1.20;;
69280;SDS011;56392;51.082;17.080;2023-01-16T02:36:00;5.30;;;1.20;;
69280;SDS011;56392;51.082;17.080;2023-01-16T02:41:31;4.63;;;0.97;;
69280;SDS011;56392;51.082;17.080;2023-01-16T02:47:05;7.15;;;1.10;;
69280;SDS011;56392;51.082;17.080;2023-01-16T02:52:35;3.95;;;0.90;;
69280;SDS011;56392;51.082;17.080;2023-01-16T02:58:03;6.10;;;1.10;;
69280;SDS011;56392;51.082;17.080;2023-01-16T03:03:37;6.60;;;1.20;;
69280;SDS011;56392;51.082;17.080;2023-01-16T03:09:07;5.60;;;1.20;;
69280;SDS011;56392;51.082;17.080;2023-01-16T03:14:55;5.63;;;1.20;;
69280;SDS011;56392;51.082;17.080;2023-01-16T03:20:29;5.20;;;1.20;;
69280;SDS011;56392;51.082;17.080;2023-01-16T03:26:00;5.55;;;1.15;;
69280;SDS011;56392;51.082;17.080;2023-01-16T03:31:28;5.80;;;1.10;;
69280;SDS011;56392;51.082;17.080;2023-01-16T03:36:57;6.20;;;1.07;;
69280;SDS011;56392;51.082;17.080;2023-01-16T03:42:29;5.97;;;1.15;;
69280;SDS011;56392;51.082;17.080;2023-01-16T03:47:58;6.85;;;1.20;;
69280;SDS011;56392;51.082;17.080;2023-01-16T03:53:27;5.90;;;1.30;;
69280;SDS011;56392;51.082;17.080;2023-01-16T03:58:58;7.35;;;1.20;;
69280;SDS011;56392;51.082;17.080;2023-01-16T04:04:24;4.75;;;0.88;;
69280;SDS011;56392;51.082;17.080;2023-01-16T04:09:50;5.50;;;1.10;;
69280;SDS011;56392;51.082;17.080;2023-01-16T04:15:18;6.03;;;1.27;;
69280;SDS011;56392;51.082;17.080;2023-01-16T04:20:43;5.25;;;1.20;;
69280;SDS011;56392;51.082;17.080;2023-01-16T04:26:11;7.07;;;1.10;;
69280;SDS011;56392;51.082;17.080;2023-01-16T04:31:36;5.43;;;1.53;;
69280;SDS011;56392;51.082;17.080;2023-01-16T04:36:59;8.82;;;1.50;;
69280;SDS011;56392;51.082;17.080;2023-01-16T04:42:22;5.65;;;1.10;;
69280;SDS011;56392;51.082;17.080;2023-01-16T04:47:46;5.87;;;1.30;;
69280;SDS011;56392;51.082;17.080;2023-01-16T04:53:10;5.18;;;1.10;;
69280;SDS011;56392;51.082;17.080;2023-01-16T04:58:33;5.82;;;1.25;;
69280;SDS011;56392;51.082;17.080;2023-01-16T05:03:57;6.90;;;1.20;;
69280;SDS011;56392;51.082;17.080;2023-01-16T05:09:21;6.13;;;1.25;;
69280;SDS011;56392;51.082;17.080;2023-01-16T05:14:44;7.50;;;1.60;;
69280;SDS011;56392;51.082;17.080;2023-01-16T05:20:09;7.13;;;1.50;;
69280;SDS011;56392;51.082;17.080;2023-01-16T05:25:33;5.80;;;1.30;;
69280;SDS011;56392;51.082;17.080;2023-01-16T05:30:56;6.85;;;1.55;;
69280;SDS011;56392;51.082;17.080;2023-01-16T05:36:21;7.10;;;2.70;;
69280;SDS011;56392;51.082;17.080;2023-01-16T05:41:44;8.87;;;4.00;;
69280;SDS011;56392;51.082;17.080;2023-01-16T05:47:07;6.60;;;2.10;;
69280;SDS011;56392;51.082;17.080;2023-01-16T05:52:31;5.68;;;1.23;;
69280;SDS011;56392;51.082;17.080;2023-01-16T05:57:55;6.07;;;1.60;;
69280;SDS011;56392;51.082;17.080;2023-01-16T06:03:18;6.18;;;1.15;;
69280;SDS011;56392;51.082;17.080;2023-01-16T06:08:43;5.90;;;1.50;;
69280;SDS011;56392;51.082;17.080;2023-01-16T06:14:09;8.23;;;1.67;;
69280;SDS011;56392;51.082;17.080;2023-01-16T06:19:32;5.97;;;1.43;;
69280;SDS011;56392;51.082;17.080;2023-01-16T06:24:56;7.22;;;1.52;;
69280;SDS011;56392;51.082;17.080;2023-01-16T06:30:19;9.90;;;2.40;;
69280;SDS011;56392;51.082;17.080;2023-01-16T06:35:42;7.63;;;1.87;;
69280;SDS011;56392;51.082;17.080;2023-01-16T06:41:07;6.85;;;1.42;;
69280;SDS011;56392;51.082;17.080;2023-01-16T06:46:31;9.18;;;1.85;;
69280;SDS011;56392;51.082;17.080;2023-01-16T06:51:55;6.80;;;1.80;;
69280;SDS011;56392;51.082;17.080;2023-01-16T06:57:19;8.60;;;1.90;;
69280;SDS011;56392;51.082;17.080;2023-01-16T07:02:42;9.85;;;2.50;;
69280;SDS011;56392;51.082;17.080;2023-01-16T07:08:05;11.23;;;2.77;;
69280;SDS011;56392;51.082;17.080;2023-01-16T07:13:30;9.60;;;2.50;;
69280;SDS011;56392;51.082;17.080;2023-01-16T07:18:53;11.48;;;3.38;;
69280;SDS011;56392;51.082;17.080;2023-01-16T07:24:33;10.52;;;2.80;;
69280;SDS011;56392;51.082;17.080;2023-01-16T07:30:01;10.30;;;2.77;;
69280;SDS011;56392;51.082;17.080;2023-01-16T07:35:25;10.48;;;3.65;;
69280;SDS011;56392;51.082;17.080;2023-01-16T07:40:48;14.07;;;4.43;;
69280;SDS011;56392;51.082;17.080;2023-01-16T07:46:12;13.50;;;3.33;;
69280;SDS011;56392;51.082;17.080;2023-01-16T07:51:35;9.52;;;2.58;;
69280;SDS011;56392;51.082;17.080;2023-01-16T07:57:00;13.38;;;4.13;;
69280;SDS011;56392;51.082;17.080;2023-01-16T08:02:24;11.47;;;3.40;;
69280;SDS011;56392;51.082;17.080;2023-01-16T08:07:47;14.53;;;3.60;;
69280;SDS011;56392;51.082;17.080;2023-01-16T08:13:11;15.68;;;3.67;;
69280;SDS011;56392;51.082;17.080;2023-01-16T08:18:36;12.18;;;3.53;;
69280;SDS011;56392;51.082;17.080;2023-01-16T08:23:59;16.83;;;3.70;;
69280;SDS011;56392;51.082;17.080;2023-01-16T08:29:23;14.23;;;3.85;;
69280;SDS011;56392;51.082;17.080;2023-01-16T08:34:48;12.65;;;3.65;;
69280;SDS011;56392;51.082;17.080;2023-01-16T08:40:12;12.73;;;3.30;;
69280;SDS011;56392;51.082;17.080;2023-01-16T08:45:35;33.35;;;9.32;;
69280;SDS011;56392;51.082;17.080;2023-01-16T08:51:18;17.05;;;6.30;;
69280;SDS011;56392;51.082;17.080;2023-01-16T08:56:46;9.33;;;2.87;;
69280;SDS011;56392;51.082;17.080;2023-01-16T09:02:09;9.80;;;2.43;;
69280;SDS011;56392;51.082;17.080;2023-01-16T09:07:37;8.68;;;1.90;;
69280;SDS011;56392;51.082;17.080;2023-01-16T09:13:00;6.82;;;1.50;;
69280;SDS011;56392;51.082;17.080;2023-01-16T09:18:41;6.23;;;1.10;;
69280;SDS011;56392;51.082;17.080;2023-01-16T09:24:06;6.07;;;1.02;;
69280;SDS011;56392;51.082;17.080;2023-01-16T09:29:30;7.00;;;1.40;;
69280;SDS011;56392;51.082;17.080;2023-01-16T09:34:53;8.23;;;1.07;;
69280;SDS011;56392;51.082;17.080;2023-01-16T09:40:19;7.38;;;1.00;;
69280;SDS011;56392;51.082;17.080;2023-01-16T09:45:43;6.43;;;1.00;;
69280;SDS011;56392;51.082;17.080;2023-01-16T09:51:10;5.27;;;1.30;;
69280;SDS011;56392;51.082;17.080;2023-01-16T09:56:38;8.40;;;1.43;;
69280;SDS011;56392;51.082;17.080;2023-01-16T10:02:23;7.35;;;1.45;;
69280;SDS011;56392;51.082;17.080;2023-01-16T10:07:49;8.40;;;2.40;;
69280;SDS011;56392;51.082;17.080;2023-01-16T10:13:25;8.97;;;2.63;;
69280;SDS011;56392;51.082;17.080;2023-01-16T10:19:01;10.32;;;2.80;;
69280;SDS011;56392;51.082;17.080;2023-01-16T10:24:34;9.73;;;2.50;;
69280;SDS011;56392;51.082;17.080;2023-01-16T10:30:09;10.20;;;2.10;;
69280;SDS011;56392;51.082;17.080;2023-01-16T10:35:37;7.82;;;1.60;;
69280;SDS011;56392;51.082;17.080;2023-01-16T10:41:05;7.38;;;1.60;;
69280;SDS011;56392;51.082;17.080;2023-01-16T10:46:52;7.17;;;1.50;;
69280;SDS011;56392;51.082;17.080;2023-01-16T10:52:33;6.80;;;1.60;;
69280;SDS011;56392;51.082;17.080;2023-01-16T10:58:05;8.30;;;1.80;;
69280;SDS011;56392;51.082;17.080;2023-01-16T11:03:41;9.02;;;2.08;;
69280;SDS011;56392;51.082;17.080;2023-01-16T11:09:16;6.23;;;1.60;;
69280;SDS011;56392;51.082;17.080;2023-01-16T11:14:41;7.80;;;2.08;;
69280;SDS011;56392;51.082;17.080;2023-01-16T11:20:26;9.20;;;2.38;;
69280;SDS011;56392;51.082;17.080;2023-01-16T11:25:54;7.77;;;1.70;;
69280;SDS011;56392;51.082;17.080;2023-01-16T11:31:20;11.27;;;1.88;;
69280;SDS011;56392;51.082;17.080;2023-01-16T11:36:49;8.05;;;1.67;;
69280;SDS011;56392;51.082;17.080;2023-01-16T11:42:12;8.83;;;1.80;;
69280;SDS011;56392;51.082;17.080;2023-01-16T11:47:50;8.37;;;1.60;;
69280;SDS011;56392;51.082;17.080;2023-01-16T11:53:17;8.82;;;2.30;;
69280;SDS011;56392;51.082;17.080;2023-01-16T11:58:43;8.05;;;1.60;;
69280;SDS011;56392;51.082;17.080;2023-01-16T12:04:14;7.80;;;1.50;;
69280;SDS011;56392;51.082;17.080;2023-01-16T12:09:44;8.20;;;1.40;;
69280;SDS011;56392;51.082;17.080;2023-01-16T12:15:17;8.05;;;1.73;;
69280;SDS011;56392;51.082;17.080;2023-01-16T12:20:48;8.30;;;2.07;;
69280;SDS011;56392;51.082;17.080;2023-01-16T12:26:19;9.30;;;2.53;;
69280;SDS011;56392;51.082;17.080;2023-01-16T12:31:49;8.02;;;2.20;;
69280;SDS011;56392;51.082;17.080;2023-01-16T12:37:25;8.27;;;2.13;;
69280;SDS011;56392;51.082;17.080;2023-01-16T12:43:06;7.37;;;1.90;;
69280;SDS011;56392;51.082;17.080;2023-01-16T12:48:47;7.22;;;1.60;;
69280;SDS011;56392;51.082;17.080;2023-01-16T12:54:40;9.65;;;1.90;;
69280;SDS011;56392;51.082;17.080;2023-01-16T13:00:16;8.43;;;2.30;;
69280;SDS011;56392;51.082;17.080;2023-01-16T13:05:42;7.40;;;1.70;;
69280;SDS011;56392;51.082;17.080;2023-01-16T13:11:08;6.72;;;1.60;;
69280;SDS011;56392;51.082;17.080;2023-01-16T13:16:59;6.83;;;1.50;;
69280;SDS011;56392;51.082;17.080;2023-01-16T13:22:28;7.82;;;2.10;;
69280;SDS011;56392;51.082;17.080;2023-01-16T13:27:59;9.88;;;2.10;;
69280;SDS011;56392;51.082;17.080;2023-01-16T13:33:27;7.93;;;1.50;;
69280;SDS011;56392;51.082;17.080;2023-01-16T13:38:55;8.47;;;1.87;;
69280;SDS011;56392;51.082;17.080;2023-01-16T13:44:30;9.35;;;2.00;;
69280;SDS011;56392;51.082;17.080;2023-01-16T13:50:20;7.68;;;1.80;;
69280;SDS011;56392;51.082;17.080;2023-01-16T13:55:46;7.40;;;1.60;;
69280;SDS011;56392;51.082;17.080;2023-01-16T14:06:55;6.40;;;1.73;;
69280;SDS011;56392;51.082;17.080;2023-01-16T14:12:40;8.97;;;1.70;;
69280;SDS011;56392;51.082;17.080;2023-01-16T14:18:15;12.77;;;4.03;;
69280;SDS011;56392;51.082;17.080;2023-01-16T14:23:41;9.50;;;2.60;;
69280;SDS011;56392;51.082;17.080;2023-01-16T14:29:28;10.37;;;2.40;;
69280;SDS011;56392;51.082;17.080;2023-01-16T14:34:54;12.57;;;3.40;;
69280;SDS011;56392;51.082;17.080;2023-01-16T14:40:21;11.18;;;2.78;;
69280;SDS011;56392;51.082;17.080;2023-01-16T14:46:29;11.60;;;2.30;;
69280;SDS011;56392;51.082;17.080;2023-01-16T14:52:11;12.73;;;3.70;;
69280;SDS011;56392;51.082;17.080;2023-01-16T14:57:53;13.77;;;3.30;;
69280;SDS011;56392;51.082;17.080;2023-01-16T15:03:20;9.50;;;2.38;;
69280;SDS011;56392;51.082;17.080;2023-01-16T15:08:48;11.90;;;2.40;;
69280;SDS011;56392;51.082;17.080;2023-01-16T15:14:14;12.27;;;2.28;;
69280;SDS011;56392;51.082;17.080;2023-01-16T15:19:59;8.43;;;2.47;;
69280;SDS011;56392;51.082;17.080;2023-01-16T15:25:59;12.87;;;2.63;;
69280;SDS011;56392;51.082;17.080;2023-01-16T15:31:38;10.23;;;2.33;;
69280;SDS011;56392;51.082;17.080;2023-01-16T15:37:11;11.02;;;2.83;;
69280;SDS011;56392;51.082;17.080;2023-01-16T15:42:42;10.90;;;2.92;;
69280;SDS011;56392;51.082;17.080;2023-01-16T15:48:30;13.63;;;3.30;;
69280;SDS011;56392;51.082;17.080;2023-01-16T15:54:01;11.70;;;3.42;;
69280;SDS011;56392;51.082;17.080;2023-01-16T15:59:26;10.95;;;3.03;;
69280;SDS011;56392;51.082;17.080;2023-01-16T16:04:53;15.43;;;4.50;;
69280;SDS011;56392;51.082;17.080;2023-01-16T16:10:19;13.80;;;4.68;;
69280;SDS011;56392;51.082;17.080;2023-01-16T16:16:01;13.20;;;3.80;;
69280;SDS011;56392;51.082;17.080;2023-01-16T16:21:45;12.70;;;4.23;;
69280;SDS011;56392;51.082;17.080;2023-01-16T16:27:24;18.97;;;6.23;;
69280;SDS011;56392;51.082;17.080;2023-01-16T16:32:47;13.93;;;4.97;;
69280;SDS011;56392;51.082;17.080;2023-01-16T16:38:18;15.18;;;6.00;;
69280;SDS011;56392;51.082;17.080;2023-01-16T16:43:46;17.53;;;5.57;;
69280;SDS011;56392;51.082;17.080;2023-01-16T16:49:29;16.30;;;5.25;;
69280;SDS011;56392;51.082;17.080;2023-01-16T16:54:55;14.40;;;5.22;;
69280;SDS011;56392;51.082;17.080;2023-01-16T17:00:20;18.27;;;5.93;;
69280;SDS011;56392;51.082;17.080;2023-01-16T17:05:43;19.15;;;6.10;;
69280;SDS011;56392;51.082;17.080;2023-01-16T17:11:11;20.58;;;6.30;;
69280;SDS011;56392;51.082;17.080;2023-01-16T17:16:35;23.10;;;7.67;;
69280;SDS011;56392;51.082;17.080;2023-01-16T17:22:00;21.10;;;7.63;;
69280;SDS011;56392;51.082;17.080;2023-01-16T17:27:25;27.05;;;7.72;;
69280;SDS011;56392;51.082;17.080;2023-01-16T17:32:50;18.77;;;7.47;;
69280;SDS011;56392;51.082;17.080;2023-01-16T17:38:18;21.93;;;7.60;;
69280;SDS011;56392;51.082;17.080;2023-01-16T17:43:43;19.83;;;6.95;;
69280;SDS011;56392;51.082;17.080;2023-01-16T17:49:24;18.13;;;6.85;;
69280;SDS011;56392;51.082;17.080;2023-01-16T17:54:48;24.63;;;9.40;;
69280;SDS011;56392;51.082;17.080;2023-01-16T18:00:35;38.03;;;13.45;;
69280;SDS011;56392;51.082;17.080;2023-01-16T18:06:01;34.97;;;13.23;;
69280;SDS011;56392;51.082;17.080;2023-01-16T18:11:28;33.57;;;12.00;;
69280;SDS011;56392;51.082;17.080;2023-01-16T18:17:11;25.90;;;10.63;;
69280;SDS011;56392;51.082;17.080;2023-01-16T18:22:45;43.15;;;17.45;;
69280;SDS011;56392;51.082;17.080;2023-01-16T18:28:10;23.10;;;9.32;;
69280;SDS011;56392;51.082;17.080;2023-01-16T18:33:35;33.60;;;14.20;;
69280;SDS011;56392;51.082;17.080;2023-01-16T18:38:59;34.22;;;14.75;;
69280;SDS011;56392;51.082;17.080;2023-01-16T18:44:39;25.08;;;10.18;;
69280;SDS011;56392;51.082;17.080;2023-01-16T18:50:21;21.30;;;9.63;;
69280;SDS011;56392;51.082;17.080;2023-01-16T18:56:02;22.20;;;10.30;;
69280;SDS011;56392;51.082;17.080;2023-01-16T19:01:43;20.35;;;8.00;;
69280;SDS011;56392;51.082;17.080;2023-01-16T19:07:22;22.47;;;8.60;;
69280;SDS011;56392;51.082;17.080;2023-01-16T19:12:48;22.40;;;8.70;;
69280;SDS011;56392;51.082;17.080;2023-01-16T19:18:15;25.45;;;9.65;;
69280;SDS011;56392;51.082;17.080;2023-01-16T19:23:39;29.58;;;11.77;;
69280;SDS011;56392;51.082;17.080;2023-01-16T19:29:02;27.60;;;12.27;;
69280;SDS011;56392;51.082;17.080;2023-01-16T19:34:25;33.60;;;13.18;;
69280;SDS011;56392;51.082;17.080;2023-01-16T19:39:50;30.80;;;12.30;;
69280;SDS011;56392;51.082;17.080;2023-01-16T19:45:13;32.23;;;13.40;;
69280;SDS011;56392;51.082;17.080;2023-01-16T19:50:54;28.95;;;12.50;;
69280;SDS011;56392;51.082;17.080;2023-01-16T19:56:18;28.60;;;11.90;;
69280;SDS011;56392;51.082;17.080;2023-01-16T20:01:52;29.13;;;11.90;;
69280;SDS011;56392;51.082;17.080;2023-01-16T20:07:16;31.00;;;12.63;;
69280;SDS011;56392;51.082;17.080;2023-01-16T20:12:40;28.90;;;12.48;;
69280;SDS011;56392;51.082;17.080;2023-01-16T20:18:04;33.30;;;12.38;;
69280;SDS011;56392;51.082;17.080;2023-01-16T20:23:28;29.13;;;11.63;;
69280;SDS011;56392;51.082;17.080;2023-01-16T20:28:54;31.73;;;12.05;;
69280;SDS011;56392;51.082;17.080;2023-01-16T20:34:20;32.72;;;11.90;;
69280;SDS011;56392;51.082;17.080;2023-01-16T20:39:44;30.53;;;13.10;;
69280;SDS011;56392;51.082;17.080;2023-01-16T20:45:11;30.73;;;14.00;;
69280;SDS011;56392;51.082;17.080;2023-01-16T20:50:52;31.48;;;14.02;;
69280;SDS011;56392;51.082;17.080;2023-01-16T20:56:15;33.60;;;14.23;;
69280;SDS011;56392;51.082;17.080;2023-01-16T21:01:40;31.90;;;14.90;;
69280;SDS011;56392;51.082;17.080;2023-01-16T21:07:05;35.72;;;15.07;;
69280;SDS011;56392;51.082;17.080;2023-01-16T21:12:28;38.85;;;16.45;;
69280;SDS011;56392;51.082;17.080;2023-01-16T21:18:10;36.97;;;16.63;;
69280;SDS011;56392;51.082;17.080;2023-01-16T21:23:51;36.25;;;17.00;;
69280;SDS011;56392;51.082;17.080;2023-01-16T21:29:15;41.58;;;18.98;;
69280;SDS011;56392;51.082;17.080;2023-01-16T21:34:39;41.53;;;18.37;;
69280;SDS011;56392;51.082;17.080;2023-01-16T21:40:04;42.75;;;19.48;;
69280;SDS011;56392;51.082;17.080;2023-01-16T21:45:29;40.95;;;19.10;;
69280;SDS011;56392;51.082;17.080;2023-01-16T21:51:11;43.93;;;20.07;;
69280;SDS011;56392;51.082;17.080;2023-01-16T21:56:34;46.27;;;19.97;;
69280;SDS011;56392;51.082;17.080;2023-01-16T22:01:57;50.47;;;22.02;;
69280;SDS011;56392;51.082;17.080;2023-01-16T22:07:24;42.53;;;19.92;;
69280;SDS011;56392;51.082;17.080;2023-01-16T22:12:47;40.83;;;17.97;;
69280;SDS011;56392;51.082;17.080;2023-01-16T22:18:26;45.28;;;20.45;;
69280;SDS011;56392;51.082;17.080;2023-01-16T22:23:53;44.83;;;21.02;;
69280;SDS011;56392;51.082;17.080;2023-01-16T22:29:20;46.63;;;20.80;;
69280;SDS011;56392;51.082;17.080;2023-01-16T22:34:44;45.33;;;22.23;;
69280;SDS011;56392;51.082;17.080;2023-01-16T22:40:10;50.45;;;21.35;;
69280;SDS011;56392;51.082;17.080;2023-01-16T22:45:37;43.53;;;21.77;;
69280;SDS011;56392;51.082;17.080;2023-01-16T22:51:17;46.97;;;20.73;;
69280;SDS011;56392;51.082;17.080;2023-01-16T22:56:42;47.10;;;21.77;;
69280;SDS011;56392;51.082;17.080;2023-01-16T23:02:05;52.88;;;22.33;;
69280;SDS011;56392;51.082;17.080;2023-01-16T23:07:29;45.50;;;20.30;;
69280;SDS011;56392;51.082;17.080;2023-01-16T23:12:53;50.15;;;21.98;;
69280;SDS011;56392;51.082;17.080;2023-01-16T23:18:16;48.35;;;23.33;;
69280;SDS011;56392;51.082;17.080;2023-01-16T23:23:40;49.57;;;23.33;;
69280;SDS011;56392;51.082;17.080;2023-01-16T23:29:04;50.28;;;23.35;;
69280;SDS011;56392;51.082;17.080;2023-01-16T23:34:30;49.00;;;23.00;;
69280;SDS011;56392;51.082;17.080;2023-01-16T23:39:53;51.27;;;23.00;;
69280;SDS011;56392;51.082;17.080;2023-01-16T23:45:17;61.03;;;23.57;;
69280;SDS011;56392;51.082;17.080;2023-01-16T23:50:40;47.10;;;21.90;;
69280;SDS011;56392;51.082;17.080;2023-01-16T23:56:04;50.25;;;22.58;;
